首页
METAR-TAF:

METAR-TAF

机场 :

华沙肖邦机场

华沙, 波兰

纬度: 52-10N, 经度: 020-58E, 海拔: 106米

当前天气观测

该预报发布于16分钟前的14:00 UTC
风速9节,风向西转西北,在西西北之间变化
温度 26°C
湿度 39%
气压 1018 hPa
能见度10公里或以上
1500米以下无云,无积雨云

METAR: EPWA 191400Z 30009KT 260V320 CAVOK 26/11 Q1018 NOSIG

时间: 16:16 (14:16 UTC)

预报

该预报发布于2小时和46分钟前的11:30 UTC
预报有效从19日的 12点(UTC)到 20日的 12点(UTC)
风速9节,风向西
能见度10公里或以上
1500米以下无云,无积雨云

TAF: EPWA 191130Z 1912/2012 28009KT CAVOK

超过4000个机场的气象观测和天气预报(METAR&TAF报告)。

可查询的气象台以黄色和红色小点在地图上表示。

将鼠标移到小点上方,可查看气象台名称。

然后点击查看天气观测和预报。

如需切换地图:点击带黑十字的绿色按钮放大地图;点击带横线的绿色按钮缩小地图;或者点击绿色箭头查看邻近地区的地图。


METAR-TAF: